Cap Palmerston — A8MW6 — position and weather

sailwx.info

Track history (hours):
 
Tides and Currents Weather Stations Pressure Air Temp Water Temp Dewpoint Dewpoint Depression Visibility Wind Speed Wind Dir Waves Ship Positions

Cap Palmerston

Last reported at 2018-Aug-20 06:00 UTC. Time now 2018-Aug-20 16:48 UTC.
Position N 10°48' W 086°30'.

Length 186 m; draft 8.8 m.

Type: Ship (hazmat cat A). MMSI: 636091380.

Wind from 110 at 11 knots

Barometer 1011.5 mb
Air temperature 28.3 ° C
Visibility: greater than 10.8 NM
Dewpoint 24.3 ° C

Date/timePositionNaut miles runAvg speedWind from/ knotsBaromVisibWave heightAir tempDewpointWater temp
2018-Aug-20 06:00N 10°48' W 086°30'168 3.5 110 / 111011.510.8 28.324.3
2018-Aug-18 06:00N 12°48' W 088°30'18515.4 350 / 71014.010.8 28.024.4
2018-Aug-17 18:00N 13°48' W 091°30'   120 / 71014.010.8 29.5 33.0
2018-Aug-13 18:00N 24°30' W 133°00'87836.6 330 / 151016.010.8 26.0 23.0
2018-Aug-12 18:00N 30°24' W 117°54'4619.7 290 / 41016.510.8 24.0 26.0
2018-Aug-12 15:41N 31°00' W 118°26'413.6
2018-Aug-12 15:21N 31°04' W 118°29'5016.7
2018-Aug-12 12:21N 31°37' W 119°13'1117.8
2018-Aug-12 11:45N 31°43' W 119°23'817.5
2018-Aug-12 11:18N 31°48' W 119°30'817.7
2018-Aug-12 10:50N 31°53' W 119°38'617.9
2018-Aug-12 10:30N 31°57' W 119°44'1118.0
2018-Aug-12 09:52N 32°04' W 119°54'918.0
2018-Aug-12 09:24N 32°10' W 120°02'1118.2
2018-Aug-12 08:48N 32°17' W 120°12'1118.0
2018-Aug-12 08:12N 32°24' W 120°21'418.3
2018-Aug-12 08:00N 32°27' W 120°24'917.8
2018-Aug-12 07:30N 32°33' W 120°32'918.0
2018-Aug-12 06:59N 32°39' W 120°39'918.0
2018-Aug-12 06:30N 32°45' W 120°47'918.1
2018-Aug-12 06:00N 32°52' W 120°55'918.0
2018-Aug-12 05:30N 32°58' W 121°02'1018.3
2018-Aug-12 04:59N 33°07' W 121°07'918.6
2018-Aug-12 04:30N 33°14' W 121°12'918.3
2018-Aug-12 04:00N 33°23' W 121°17'918.4
2018-Aug-12 03:30N 33°31' W 121°22'918.7
2018-Aug-12 03:00N 33°39' W 121°27'918.6
2018-Aug-12 02:30N 33°47' W 121°32'918.1
2018-Aug-12 02:00N 33°55' W 121°37'1018.2
2018-Aug-12 01:28N 34°04' W 121°42'918.3
2018-Aug-12 00:58N 34°12' W 121°47'818.4
2018-Aug-12 00:30N 34°20' W 121°52'918.3
2018-Aug-12 00:00N 34°28' W 121°57'918.1
2018-Aug-11 23:30N 34°36' W 122°02'917.9
2018-Aug-11 23:00N 34°44' W 122°08'918.2
2018-Aug-11 22:30N 34°52' W 122°12'2518.1
2018-Aug-11 21:08N 35°14' W 122°26'218.1
2018-Aug-11 21:00N 35°16' W 122°27'918.0
2018-Aug-11 20:30N 35°24' W 122°32'918.0
2018-Aug-11 20:00N 35°33' W 122°37'917.8
2018-Aug-11 19:30N 35°41' W 122°41'917.4
2018-Aug-11 19:00N 35°49' W 122°44'917.9
2018-Aug-11 18:30N 35°58' W 122°44'917.8
2018-Aug-11 18:00N 36°07' W 122°44'2157.4
2018-Aug-11 18:00N 36°06' W 122°42'1020.4 330 / 151018.010.8 16.014.319.0
2018-Aug-11 17:30N 36°16' W 122°44'1817.6
2018-Aug-11 16:28N 36°34' W 122°44'817.3
2018-Aug-11 16:00N 36°42' W 122°43'817.4
2018-Aug-11 15:30N 36°51' W 122°43'917.3
2018-Aug-11 15:00N 36°59' W 122°43'917.5
2018-Aug-11 14:30N 37°08' W 122°43'917.4
2018-Aug-11 14:00N 37°17' W 122°44'917.6
2018-Aug-11 13:30N 37°26' W 122°43'917.8
2018-Aug-11 13:00N 37°35' W 122°44'917.3
2018-Aug-11 12:30N 37°43' W 122°42'612.9
2018-Aug-11 12:00N 37°47' W 122°36'713.9
2018-Aug-11 11:31N 37°50' W 122°28'713.3
2018-Aug-11 11:00N 37°48' W 122°20'0 0.8
2018-Aug-11 10:30N 37°48' W 122°19'0 0.0
2018-Aug-11 10:00N 37°48' W 122°19'0 0.0
2018-Aug-11 09:30N 37°48' W 122°19'0 0.0
2018-Aug-11 09:00N 37°48' W 122°19'0 0.0
2018-Aug-11 08:30N 37°48' W 122°19'0 0.0
2018-Aug-11 08:00N 37°48' W 122°19'0 0.0
2018-Aug-11 07:30N 37°48' W 122°19'0 0.0
2018-Aug-11 07:00N 37°48' W 122°19'0 0.0
2018-Aug-11 06:30N 37°48' W 122°19'0 0.0
2018-Aug-11 06:00N 37°48' W 122°19'0 0.0
2018-Aug-11 05:30N 37°48' W 122°19'0 0.0
2018-Aug-11 04:57N 37°48' W 122°19'0 0.0
2018-Aug-11 04:30N 37°48' W 122°19'0 0.0
2018-Aug-11 04:00N 37°48' W 122°19'0 0.0
2018-Aug-11 03:30N 37°48' W 122°19'0 0.0
2018-Aug-11 03:00N 37°48' W 122°19'0 0.0
2018-Aug-11 02:30N 37°48' W 122°19'0 0.1
2018-Aug-11 02:00N 37°48' W 122°19'2 4.5
2018-Aug-11 01:30N 37°48' W 122°22'4 8.5
2018-Aug-11 01:00N 37°49' W 122°27'5 9.2
2018-Aug-11 00:31N 37°47' W 122°33'612.8
2018-Aug-11 00:01N 37°45' W 122°40'510.6
2018-Aug-10 23:30N 37°40' W 122°40'815.2
2018-Aug-10 23:00N 37°32' W 122°39'815.5
2018-Aug-10 22:30N 37°24' W 122°39'815.2
2018-Aug-10 22:00N 37°17' W 122°38'815.4
2018-Aug-10 21:30N 37°09' W 122°37'815.4
2018-Aug-10 21:00N 37°02' W 122°35'815.4
2018-Aug-10 20:30N 36°54' W 122°32'815.3
2018-Aug-10 20:00N 36°47' W 122°30'815.1
2018-Aug-10 19:30N 36°40' W 122°25'815.3
2018-Aug-10 19:01N 36°34' W 122°21'815.9
2018-Aug-10 18:31N 36°27' W 122°16'816.0
2018-Aug-10 18:00N 36°20' W 122°11'815.9
2018-Aug-10 17:31N 36°13' W 122°06'816.1
2018-Aug-10 17:01N 36°06' W 122°01'816.0
2018-Aug-10 16:30N 35°59' W 121°56'816.0
2018-Aug-10 16:00N 35°52' W 121°51'815.9
2018-Aug-10 15:30N 35°45' W 121°47'816.5
2018-Aug-10 15:01N 35°38' W 121°42'917.7
2018-Aug-10 14:31N 35°30' W 121°36'917.3
2018-Aug-10 14:00N 35°23' W 121°31'816.6
2018-Aug-10 13:30N 35°15' W 121°26'917.2
2018-Aug-10 13:00N 35°08' W 121°21'917.1
2018-Aug-10 12:30N 35°00' W 121°16'816.9
2018-Aug-10 12:00N 34°53' W 121°11'816.8
2018-Aug-10 11:30N 34°46' W 121°06'817.0
2018-Aug-10 11:01N 34°38' W 121°01'917.4
2018-Aug-10 10:30N 34°30' W 120°55'816.6
2018-Aug-10 10:00N 34°25' W 120°47'917.4
2018-Aug-10 09:30N 34°23' W 120°37'917.5
2018-Aug-10 09:00N 34°21' W 120°27'817.3
2018-Aug-10 08:30N 34°18' W 120°17'917.6
2018-Aug-10 08:01N 34°16' W 120°07'917.6
2018-Aug-10 07:30N 34°14' W 119°57'917.2
2018-Aug-10 07:00N 34°11' W 119°47'917.3
2018-Aug-10 06:31N 34°09' W 119°37'917.3
2018-Aug-10 06:01N 34°07' W 119°27'  
Track history (hours):
 
Tides and Currents Weather Stations Pressure Air Temp Water Temp Dewpoint Dewpoint Depression Visibility Wind Speed Wind Dir Waves Ship Positions

Cap Palmerston

Last reported at 2018-Aug-20 06:00 UTC. Time now 2018-Aug-20 16:48 UTC.
Position N 10°48' W 086°30'.

Length 186 m; draft 8.8 m.

Type: Ship (hazmat cat A). MMSI: 636091380.

Wind from 110 at 11 knots

Barometer 1011.5 mb
Air temperature 28.3 ° C
Visibility: greater than 10.8 NM
Dewpoint 24.3 ° C

Date/timePositionNaut miles runAvg speedWind from/ knotsBaromVisibWave heightAir tempDewpointWater temp
2018-Aug-20 06:00N 10°48' W 086°30'168 3.5 110 / 111011.510.8 28.324.3
2018-Aug-18 06:00N 12°48' W 088°30'18515.4 350 / 71014.010.8 28.024.4
2018-Aug-17 18:00N 13°48' W 091°30'   120 / 71014.010.8 29.5 33.0
2018-Aug-13 18:00N 24°30' W 133°00'87836.6 330 / 151016.010.8 26.0 23.0
2018-Aug-12 18:00N 30°24' W 117°54'4619.7 290 / 41016.510.8 24.0 26.0
2018-Aug-12 15:41N 31°00' W 118°26'413.6
2018-Aug-12 15:21N 31°04' W 118°29'5016.7
2018-Aug-12 12:21N 31°37' W 119°13'1117.8
2018-Aug-12 11:45N 31°43' W 119°23'817.5
2018-Aug-12 11:18N 31°48' W 119°30'817.7
2018-Aug-12 10:50N 31°53' W 119°38'617.9
2018-Aug-12 10:30N 31°57' W 119°44'1118.0
2018-Aug-12 09:52N 32°04' W 119°54'918.0
2018-Aug-12 09:24N 32°10' W 120°02'1118.2
2018-Aug-12 08:48N 32°17' W 120°12'1118.0
2018-Aug-12 08:12N 32°24' W 120°21'418.3
2018-Aug-12 08:00N 32°27' W 120°24'917.8
2018-Aug-12 07:30N 32°33' W 120°32'918.0
2018-Aug-12 06:59N 32°39' W 120°39'918.0
2018-Aug-12 06:30N 32°45' W 120°47'918.1
2018-Aug-12 06:00N 32°52' W 120°55'918.0
2018-Aug-12 05:30N 32°58' W 121°02'1018.3
2018-Aug-12 04:59N 33°07' W 121°07'918.6
2018-Aug-12 04:30N 33°14' W 121°12'918.3
2018-Aug-12 04:00N 33°23' W 121°17'918.4
2018-Aug-12 03:30N 33°31' W 121°22'918.7
2018-Aug-12 03:00N 33°39' W 121°27'918.6
2018-Aug-12 02:30N 33°47' W 121°32'918.1
2018-Aug-12 02:00N 33°55' W 121°37'1018.2
2018-Aug-12 01:28N 34°04' W 121°42'918.3
2018-Aug-12 00:58N 34°12' W 121°47'818.4
2018-Aug-12 00:30N 34°20' W 121°52'918.3
2018-Aug-12 00:00N 34°28' W 121°57'918.1
2018-Aug-11 23:30N 34°36' W 122°02'917.9
2018-Aug-11 23:00N 34°44' W 122°08'918.2
2018-Aug-11 22:30N 34°52' W 122°12'2518.1
2018-Aug-11 21:08N 35°14' W 122°26'218.1
2018-Aug-11 21:00N 35°16' W 122°27'918.0
2018-Aug-11 20:30N 35°24' W 122°32'918.0
2018-Aug-11 20:00N 35°33' W 122°37'917.8
2018-Aug-11 19:30N 35°41' W 122°41'917.4
2018-Aug-11 19:00N 35°49' W 122°44'917.9
2018-Aug-11 18:30N 35°58' W 122°44'917.8
2018-Aug-11 18:00N 36°07' W 122°44'2157.4
2018-Aug-11 18:00N 36°06' W 122°42'1020.4 330 / 151018.010.8 16.014.319.0
2018-Aug-11 17:30N 36°16' W 122°44'1817.6
2018-Aug-11 16:28N 36°34' W 122°44'817.3
2018-Aug-11 16:00N 36°42' W 122°43'817.4
2018-Aug-11 15:30N 36°51' W 122°43'917.3
2018-Aug-11 15:00N 36°59' W 122°43'917.5
2018-Aug-11 14:30N 37°08' W 122°43'917.4
2018-Aug-11 14:00N 37°17' W 122°44'917.6
2018-Aug-11 13:30N 37°26' W 122°43'917.8
2018-Aug-11 13:00N 37°35' W 122°44'917.3
2018-Aug-11 12:30N 37°43' W 122°42'612.9
2018-Aug-11 12:00N 37°47' W 122°36'713.9
2018-Aug-11 11:31N 37°50' W 122°28'713.3
2018-Aug-11 11:00N 37°48' W 122°20'0 0.8
2018-Aug-11 10:30N 37°48' W 122°19'0 0.0
2018-Aug-11 10:00N 37°48' W 122°19'0 0.0
2018-Aug-11 09:30N 37°48' W 122°19'0 0.0
2018-Aug-11 09:00N 37°48' W 122°19'0 0.0
2018-Aug-11 08:30N 37°48' W 122°19'0 0.0
2018-Aug-11 08:00N 37°48' W 122°19'0 0.0
2018-Aug-11 07:30N 37°48' W 122°19'0 0.0
2018-Aug-11 07:00N 37°48' W 122°19'0 0.0
2018-Aug-11 06:30N 37°48' W 122°19'0 0.0
2018-Aug-11 06:00N 37°48' W 122°19'0 0.0
2018-Aug-11 05:30N 37°48' W 122°19'0 0.0
2018-Aug-11 04:57N 37°48' W 122°19'0 0.0
2018-Aug-11 04:30N 37°48' W 122°19'0 0.0
2018-Aug-11 04:00N 37°48' W 122°19'0 0.0
2018-Aug-11 03:30N 37°48' W 122°19'0 0.0
2018-Aug-11 03:00N 37°48' W 122°19'0 0.0
2018-Aug-11 02:30N 37°48' W 122°19'0 0.1
2018-Aug-11 02:00N 37°48' W 122°19'2 4.5
2018-Aug-11 01:30N 37°48' W 122°22'4 8.5
2018-Aug-11 01:00N 37°49' W 122°27'5 9.2
2018-Aug-11 00:31N 37°47' W 122°33'612.8
2018-Aug-11 00:01N 37°45' W 122°40'510.6
2018-Aug-10 23:30N 37°40' W 122°40'815.2
2018-Aug-10 23:00N 37°32' W 122°39'815.5
2018-Aug-10 22:30N 37°24' W 122°39'815.2
2018-Aug-10 22:00N 37°17' W 122°38'815.4
2018-Aug-10 21:30N 37°09' W 122°37'815.4
2018-Aug-10 21:00N 37°02' W 122°35'815.4
2018-Aug-10 20:30N 36°54' W 122°32'815.3
2018-Aug-10 20:00N 36°47' W 122°30'815.1
2018-Aug-10 19:30N 36°40' W 122°25'815.3
2018-Aug-10 19:01N 36°34' W 122°21'815.9
2018-Aug-10 18:31N 36°27' W 122°16'816.0
2018-Aug-10 18:00N 36°20' W 122°11'815.9
2018-Aug-10 17:31N 36°13' W 122°06'816.1
2018-Aug-10 17:01N 36°06' W 122°01'816.0
2018-Aug-10 16:30N 35°59' W 121°56'816.0
2018-Aug-10 16:00N 35°52' W 121°51'815.9
2018-Aug-10 15:30N 35°45' W 121°47'816.5
2018-Aug-10 15:01N 35°38' W 121°42'917.7
2018-Aug-10 14:31N 35°30' W 121°36'917.3
2018-Aug-10 14:00N 35°23' W 121°31'816.6
2018-Aug-10 13:30N 35°15' W 121°26'917.2
2018-Aug-10 13:00N 35°08' W 121°21'917.1
2018-Aug-10 12:30N 35°00' W 121°16'816.9
2018-Aug-10 12:00N 34°53' W 121°11'816.8
2018-Aug-10 11:30N 34°46' W 121°06'817.0
2018-Aug-10 11:01N 34°38' W 121°01'917.4
2018-Aug-10 10:30N 34°30' W 120°55'816.6
2018-Aug-10 10:00N 34°25' W 120°47'917.4
2018-Aug-10 09:30N 34°23' W 120°37'917.5
2018-Aug-10 09:00N 34°21' W 120°27'817.3
2018-Aug-10 08:30N 34°18' W 120°17'917.6
2018-Aug-10 08:01N 34°16' W 120°07'917.6
2018-Aug-10 07:30N 34°14' W 119°57'917.2
2018-Aug-10 07:00N 34°11' W 119°47'917.3
2018-Aug-10 06:31N 34°09' W 119°37'917.3
2018-Aug-10 06:01N 34°07' W 119°27'  

Dump ship's entire track history